sensor_id;sensor_type;location;lat;lon;timestamp;pressure;altitude;pressure_sealevel;temperature;humidity
24666;BME280;29726;53.532;-1.478;2023-02-22T00:01:29;99923.47;;;14.28;100.00
24666;BME280;29726;53.532;-1.478;2023-02-22T00:04:19;99935.22;;;14.32;100.00
24666;BME280;29726;53.532;-1.478;2023-02-22T00:07:05;99944.66;;;14.35;100.00
24666;BME280;29726;53.532;-1.478;2023-02-22T00:09:49;99936.50;;;14.31;100.00
24666;BME280;29726;53.532;-1.478;2023-02-22T00:12:33;99936.50;;;14.31;100.00
24666;BME280;29726;53.532;-1.478;2023-02-22T00:15:21;99933.16;;;14.33;100.00
24666;BME280;29726;53.532;-1.478;2023-02-22T00:18:05;99925.47;;;14.22;100.00
24666;BME280;29726;53.532;-1.478;2023-02-22T00:20:50;99931.63;;;14.26;100.00
24666;BME280;29726;53.532;-1.478;2023-02-22T00:23:34;99943.38;;;14.30;100.00
24666;BME280;29726;53.532;-1.478;2023-02-22T00:26:20;99942.84;;;14.26;100.00
24666;BME280;29726;53.532;-1.478;2023-02-22T00:29:04;99944.41;;;14.27;100.00
24666;BME280;29726;53.532;-1.478;2023-02-22T00:31:48;99930.59;;;14.24;100.00
24666;BME280;29726;53.532;-1.478;2023-02-22T00:34:32;99932.13;;;14.25;100.00
24666;BME280;29726;53.532;-1.478;2023-02-22T00:37:15;99928.81;;;14.21;100.00
24666;BME280;29726;53.532;-1.478;2023-02-22T00:40:00;99923.69;;;14.19;100.00
24666;BME280;29726;53.532;-1.478;2023-02-22T00:42:44;99933.41;;;14.24;100.00
24666;BME280;29726;53.532;-1.478;2023-02-22T00:45:33;99937.50;;;14.23;100.00
24666;BME280;29726;53.532;-1.478;2023-02-22T00:48:18;99938.25;;;14.23;100.00
24666;BME280;29726;53.532;-1.478;2023-02-22T00:51:02;99926.25;;;14.17;100.00
24666;BME280;29726;53.532;-1.478;2023-02-22T00:53:47;99922.09;;;14.13;100.00
24666;BME280;29726;53.532;-1.478;2023-02-22T00:56:34;99929.56;;;14.16;100.00
24666;BME280;29726;53.532;-1.478;2023-02-22T00:59:18;99932.84;;;14.14;100.00
24666;BME280;29726;53.532;-1.478;2023-02-22T01:02:02;99914.69;;;14.04;100.00
24666;BME280;29726;53.532;-1.478;2023-02-22T01:04:46;99925.69;;;14.13;100.00
24666;BME280;29726;53.532;-1.478;2023-02-22T01:07:30;99912.38;;;14.03;100.00
24666;BME280;29726;53.532;-1.478;2023-02-22T01:10:19;99925.16;;;14.15;100.00
24666;BME280;29726;53.532;-1.478;2023-02-22T01:13:04;99904.72;;;14.03;100.00
24666;BME280;29726;53.532;-1.478;2023-02-22T01:15:51;99912.94;;;14.12;100.00
24666;BME280;29726;53.532;-1.478;2023-02-22T01:18:35;99914.19;;;14.11;100.00
24666;BME280;29726;53.532;-1.478;2023-02-22T01:21:19;99899.66;;;14.07;100.00
24666;BME280;29726;53.532;-1.478;2023-02-22T01:24:03;99904.00;;;14.08;100.00
24666;BME280;29726;53.532;-1.478;2023-02-22T01:26:51;99908.34;;;14.09;100.00
24666;BME280;29726;53.532;-1.478;2023-02-22T01:29:35;99897.34;;;14.06;100.00
24666;BME280;29726;53.532;-1.478;2023-02-22T01:32:19;99888.91;;;14.06;100.00
24666;BME280;29726;53.532;-1.478;2023-02-22T01:35:07;99875.66;;;14.06;100.00
24666;BME280;29726;53.532;-1.478;2023-02-22T01:37:51;99852.19;;;14.04;100.00
24666;BME280;29726;53.532;-1.478;2023-02-22T01:40:38;99854.50;;;14.05;100.00
24666;BME280;29726;53.532;-1.478;2023-02-22T01:43:29;99863.66;;;14.06;100.00
24666;BME280;29726;53.532;-1.478;2023-02-22T01:46:22;99871.31;;;14.05;100.00
24666;BME280;29726;53.532;-1.478;2023-02-22T01:49:06;99878.44;;;14.01;100.00
24666;BME280;29726;53.532;-1.478;2023-02-22T01:51:56;99877.66;;;14.00;100.00
24666;BME280;29726;53.532;-1.478;2023-02-22T01:54:45;99856.72;;;13.90;100.00
24666;BME280;29726;53.532;-1.478;2023-02-22T01:57:33;99861.81;;;13.92;100.00
24666;BME280;29726;53.532;-1.478;2023-02-22T02:00:18;99872.31;;;13.97;100.00
24666;BME280;29726;53.532;-1.478;2023-02-22T02:03:12;99861.09;;;13.97;100.00
24666;BME280;29726;53.532;-1.478;2023-02-22T02:06:00;99866.72;;;13.97;100.00
24666;BME280;29726;53.532;-1.478;2023-02-22T02:09:07;99847.03;;;13.91;100.00
24666;BME280;29726;53.532;-1.478;2023-02-22T02:11:54;99810.50;;;13.69;100.00
24666;BME280;29726;53.532;-1.478;2023-02-22T02:14:40;99845.00;;;13.97;100.00
24666;BME280;29726;53.532;-1.478;2023-02-22T02:17:24;99849.09;;;13.96;100.00
24666;BME280;29726;53.532;-1.478;2023-02-22T02:32:51;99806.47;;;13.87;100.00
24666;BME280;29726;53.532;-1.478;2023-02-22T02:35:50;99802.63;;;13.90;100.00
24666;BME280;29726;53.532;-1.478;2023-02-22T02:38:54;99795.25;;;13.87;100.00
24666;BME280;29726;53.532;-1.478;2023-02-22T02:41:46;99790.16;;;13.85;100.00
24666;BME280;29726;53.532;-1.478;2023-02-22T02:45:07;99768.19;;;13.78;100.00
24666;BME280;29726;53.532;-1.478;2023-02-22T02:47:53;99769.25;;;13.86;100.00
24666;BME280;29726;53.532;-1.478;2023-02-22T02:50:47;99728.63;;;13.60;100.00
24666;BME280;29726;53.532;-1.478;2023-02-22T02:53:38;99773.31;;;13.85;100.00
24666;BME280;29726;53.532;-1.478;2023-02-22T02:56:23;99766.16;;;13.79;100.00
24666;BME280;29726;53.532;-1.478;2023-02-22T02:59:32;99767.94;;;13.82;100.00
24666;BME280;29726;53.532;-1.478;2023-02-22T03:02:20;99770.00;;;13.81;100.00
24666;BME280;29726;53.532;-1.478;2023-02-22T03:08:43;99774.84;;;13.81;100.00
24666;BME280;29726;53.532;-1.478;2023-02-22T03:11:50;99776.09;;;13.80;100.00
24666;BME280;29726;53.532;-1.478;2023-02-22T03:17:50;99775.84;;;13.78;100.00
24666;BME280;29726;53.532;-1.478;2023-02-22T03:20:54;99775.84;;;13.78;100.00
24666;BME280;29726;53.532;-1.478;2023-02-22T03:23:50;99769.47;;;13.72;100.00
24666;BME280;29726;53.532;-1.478;2023-02-22T03:27:31;99786.03;;;13.75;100.00
24666;BME280;29726;53.532;-1.478;2023-02-22T03:30:00;99782.47;;;13.75;100.00
24666;BME280;29726;53.532;-1.478;2023-02-22T03:32:50;99781.97;;;13.71;100.00
24666;BME280;29726;53.532;-1.478;2023-02-22T03:35:49;99767.66;;;13.63;100.00
24666;BME280;29726;53.532;-1.478;2023-02-22T03:38:41;99782.72;;;13.71;100.00
24666;BME280;29726;53.532;-1.478;2023-02-22T03:41:28;99784.78;;;13.71;100.00
24666;BME280;29726;53.532;-1.478;2023-02-22T03:44:17;99784.78;;;13.71;100.00
24666;BME280;29726;53.532;-1.478;2023-02-22T03:47:07;99754.13;;;13.62;100.00
24666;BME280;29726;53.532;-1.478;2023-02-22T03:50:04;99767.16;;;13.70;100.00
24666;BME280;29726;53.532;-1.478;2023-02-22T03:52:50;99780.94;;;13.68;100.00
24666;BME280;29726;53.532;-1.478;2023-02-22T03:55:34;99777.88;;;13.66;100.00
24666;BME280;29726;53.532;-1.478;2023-02-22T03:58:21;99773.75;;;13.62;100.00
24666;BME280;29726;53.532;-1.478;2023-02-22T04:01:07;99769.44;;;13.61;100.00
24666;BME280;29726;53.532;-1.478;2023-02-22T04:03:51;99768.94;;;13.62;100.00
24666;BME280;29726;53.532;-1.478;2023-02-22T04:06:35;99778.88;;;13.63;100.00
24666;BME280;29726;53.532;-1.478;2023-02-22T04:09:19;99769.94;;;13.59;100.00
24666;BME280;29726;53.532;-1.478;2023-02-22T04:12:04;99775.81;;;13.61;100.00
24666;BME280;29726;53.532;-1.478;2023-02-22T04:14:48;99759.47;;;13.54;100.00
24666;BME280;29726;53.532;-1.478;2023-02-22T04:17:32;99755.16;;;13.59;100.00
24666;BME280;29726;53.532;-1.478;2023-02-22T04:20:16;99763.31;;;13.57;100.00
24666;BME280;29726;53.532;-1.478;2023-02-22T04:23:02;99755.91;;;13.54;100.00
24666;BME280;29726;53.532;-1.478;2023-02-22T04:25:46;99758.19;;;13.55;100.00
24666;BME280;29726;53.532;-1.478;2023-02-22T04:28:30;99764.31;;;13.54;100.00
24666;BME280;29726;53.532;-1.478;2023-02-22T04:31:15;99777.56;;;13.53;100.00
24666;BME280;29726;53.532;-1.478;2023-02-22T04:33:59;99766.88;;;13.52;100.00
24666;BME280;29726;53.532;-1.478;2023-02-22T04:36:44;99773.75;;;13.51;100.00
24666;BME280;29726;53.532;-1.478;2023-02-22T04:39:28;99774.00;;;13.53;100.00
24666;BME280;29726;53.532;-1.478;2023-02-22T04:42:12;99773.22;;;13.47;100.00
24666;BME280;29726;53.532;-1.478;2023-02-22T04:44:56;99774.75;;;13.48;100.00
24666;BME280;29726;53.532;-1.478;2023-02-22T04:47:40;99764.78;;;13.41;100.00
24666;BME280;29726;53.532;-1.478;2023-02-22T04:50:24;99766.34;;;13.48;100.00
24666;BME280;29726;53.532;-1.478;2023-02-22T04:53:08;99767.34;;;13.45;100.00
24666;BME280;29726;53.532;-1.478;2023-02-22T04:55:52;99752.03;;;13.40;100.00
24666;BME280;29726;53.532;-1.478;2023-02-22T04:58:36;99759.69;;;13.45;100.00
24666;BME280;29726;53.532;-1.478;2023-02-22T05:01:20;99756.91;;;13.45;100.00
24666;BME280;29726;53.532;-1.478;2023-02-22T05:04:06;99755.09;;;13.42;100.00
24666;BME280;29726;53.532;-1.478;2023-02-22T05:06:50;99756.63;;;13.38;100.00
24666;BME280;29726;53.532;-1.478;2023-02-22T05:09:34;99747.97;;;13.41;100.00
24666;BME280;29726;53.532;-1.478;2023-02-22T05:12:18;99751.78;;;13.38;100.00
24666;BME280;29726;53.532;-1.478;2023-02-22T05:15:04;99748.47;;;13.40;100.00
24666;BME280;29726;53.532;-1.478;2023-02-22T05:17:48;99761.47;;;13.37;100.00
24666;BME280;29726;53.532;-1.478;2023-02-22T05:20:33;99744.66;;;13.37;100.00
24666;BME280;29726;53.532;-1.478;2023-02-22T05:23:18;99741.59;;;13.35;100.00
24666;BME280;29726;53.532;-1.478;2023-02-22T05:26:02;99747.72;;;13.39;100.00
24666;BME280;29726;53.532;-1.478;2023-02-22T05:28:46;99738.78;;;13.35;100.00
24666;BME280;29726;53.532;-1.478;2023-02-22T05:31:30;99726.03;;;13.34;100.00
24666;BME280;29726;53.532;-1.478;2023-02-22T05:34:14;99732.91;;;13.28;100.00
24666;BME280;29726;53.532;-1.478;2023-02-22T05:36:59;99735.44;;;13.31;100.00
24666;BME280;29726;53.532;-1.478;2023-02-22T05:39:43;99727.28;;;13.33;100.00
24666;BME280;29726;53.532;-1.478;2023-02-22T05:42:29;99743.34;;;13.33;100.00
24666;BME280;29726;53.532;-1.478;2023-02-22T05:45:15;99742.56;;;13.32;100.00
24666;BME280;29726;53.532;-1.478;2023-02-22T05:47:59;99736.44;;;13.28;100.00
24666;BME280;29726;53.532;-1.478;2023-02-22T05:50:43;99745.63;;;13.29;100.00
24666;BME280;29726;53.532;-1.478;2023-02-22T05:53:27;99741.31;;;13.28;100.00
24666;BME280;29726;53.532;-1.478;2023-02-22T05:56:11;99737.72;;;13.27;100.00
24666;BME280;29726;53.532;-1.478;2023-02-22T05:58:55;99728.03;;;13.28;100.00
24666;BME280;29726;53.532;-1.478;2023-02-22T06:01:40;99723.41;;;13.20;100.00
24666;BME280;29726;53.532;-1.478;2023-02-22T06:04:23;99729.06;;;13.26;100.00
24666;BME280;29726;53.532;-1.478;2023-02-22T06:07:07;99734.41;;;13.24;100.00
24666;BME280;29726;53.532;-1.478;2023-02-22T06:09:52;99734.63;;;13.20;100.00
24666;BME280;29726;53.532;-1.478;2023-02-22T06:12:36;99734.13;;;13.22;100.00
24666;BME280;29726;53.532;-1.478;2023-02-22T06:15:21;99739.25;;;13.23;100.00
24666;BME280;29726;53.532;-1.478;2023-02-22T06:18:06;99732.09;;;13.17;100.00
24666;BME280;29726;53.532;-1.478;2023-02-22T06:20:49;99727.22;;;13.17;100.00
24666;BME280;29726;53.532;-1.478;2023-02-22T06:23:33;99741.28;;;13.23;100.00
24666;BME280;29726;53.532;-1.478;2023-02-22T06:26:18;99747.38;;;13.21;100.00
24666;BME280;29726;53.532;-1.478;2023-02-22T06:29:02;99722.91;;;13.16;100.00
24666;BME280;29726;53.532;-1.478;2023-02-22T06:31:49;99727.75;;;13.16;100.00
24666;BME280;29726;53.532;-1.478;2023-02-22T06:34:33;99737.16;;;13.18;100.00
24666;BME280;29726;53.532;-1.478;2023-02-22T06:37:17;99730.25;;;13.08;100.00
24666;BME280;29726;53.532;-1.478;2023-02-22T06:40:01;99739.72;;;13.16;100.00
24666;BME280;29726;53.532;-1.478;2023-02-22T06:42:47;99746.59;;;13.15;100.00
24666;BME280;29726;53.532;-1.478;2023-02-22T06:45:31;99735.91;;;13.14;100.00
24666;BME280;29726;53.532;-1.478;2023-02-22T06:48:15;99729.00;;;13.09;100.00
24666;BME280;29726;53.532;-1.478;2023-02-22T06:51:00;99708.03;;;12.99;100.00
24666;BME280;29726;53.532;-1.478;2023-02-22T06:53:43;99729.00;;;13.09;100.00
24666;BME280;29726;53.532;-1.478;2023-02-22T06:56:27;99731.00;;;13.09;100.00
24666;BME280;29726;53.532;-1.478;2023-02-22T06:59:11;99730.75;;;13.07;100.00
24666;BME280;29726;53.532;-1.478;2023-02-22T07:01:55;99726.16;;;13.04;100.00
24666;BME280;29726;53.532;-1.478;2023-02-22T07:04:39;99689.59;;;12.76;100.00
24666;BME280;29726;53.532;-1.478;2023-02-22T07:07:23;99730.75;;;13.07;100.00
24666;BME280;29726;53.532;-1.478;2023-02-22T07:10:19;99737.88;;;13.08;100.00
24666;BME280;29726;53.532;-1.478;2023-02-22T07:13:05;99726.41;;;13.06;100.00
24666;BME280;29726;53.532;-1.478;2023-02-22T07:15:49;99697.56;;;12.89;100.00
24666;BME280;29726;53.532;-1.478;2023-02-22T07:18:33;99720.25;;;12.96;100.00
24666;BME280;29726;53.532;-1.478;2023-02-22T07:21:17;99729.47;;;13.02;100.00
24666;BME280;29726;53.532;-1.478;2023-02-22T07:24:02;99727.44;;;13.03;100.00
24666;BME280;29726;53.532;-1.478;2023-02-22T07:26:45;99732.78;;;13.01;100.00
24666;BME280;29726;53.532;-1.478;2023-02-22T07:29:29;99726.41;;;13.00;100.00
24666;BME280;29726;53.532;-1.478;2023-02-22T07:32:14;99690.38;;;12.77;100.00
24666;BME280;29726;53.532;-1.478;2023-02-22T07:34:58;99729.72;;;12.99;100.00
24666;BME280;29726;53.532;-1.478;2023-02-22T07:37:43;99733.25;;;12.94;100.00
24666;BME280;29726;53.532;-1.478;2023-02-22T07:40:27;99731.72;;;12.93;100.00
24666;BME280;29726;53.532;-1.478;2023-02-22T07:45:59;99748.06;;;13.00;100.00
24666;BME280;29726;53.532;-1.478;2023-02-22T07:48:45;99733.75;;;12.92;100.00
24666;BME280;29726;53.532;-1.478;2023-02-22T07:51:29;99734.72;;;12.89;100.00
24666;BME280;29726;53.532;-1.478;2023-02-22T07:54:13;99742.63;;;12.91;100.00
24666;BME280;29726;53.532;-1.478;2023-02-22T07:56:57;99743.94;;;12.95;100.00
24666;BME280;29726;53.532;-1.478;2023-02-22T07:59:44;99748.53;;;12.93;100.00
24666;BME280;29726;53.532;-1.478;2023-02-22T08:02:28;99753.13;;;12.96;100.00
24666;BME280;29726;53.532;-1.478;2023-02-22T08:05:13;99759.47;;;12.96;100.00
24666;BME280;29726;53.532;-1.478;2023-02-22T08:07:57;99761.53;;;12.96;100.00
24666;BME280;29726;53.532;-1.478;2023-02-22T08:10:42;99754.34;;;12.89;100.00
24666;BME280;29726;53.532;-1.478;2023-02-22T08:13:26;99753.34;;;12.92;100.00
24666;BME280;29726;53.532;-1.478;2023-02-22T08:16:10;99721.13;;;12.71;100.00
24666;BME280;29726;53.532;-1.478;2023-02-22T08:18:54;99741.09;;;12.90;100.00
24666;BME280;29726;53.532;-1.478;2023-02-22T08:21:38;99750.81;;;12.94;100.00
24666;BME280;29726;53.532;-1.478;2023-02-22T08:24:22;99750.25;;;12.90;100.00
24666;BME280;29726;53.532;-1.478;2023-02-22T08:27:06;99746.97;;;12.92;100.00
24666;BME280;29726;53.532;-1.478;2023-02-22T08:29:50;99741.59;;;12.88;100.00
24666;BME280;29726;53.532;-1.478;2023-02-22T08:32:35;99738.00;;;12.82;100.00
24666;BME280;29726;53.532;-1.478;2023-02-22T08:35:20;99746.19;;;12.91;100.00
24666;BME280;29726;53.532;-1.478;2023-02-22T08:38:05;99744.16;;;12.92;100.00
24666;BME280;29726;53.532;-1.478;2023-02-22T08:40:50;99751.59;;;12.95;100.00
24666;BME280;29726;53.532;-1.478;2023-02-22T08:43:34;99734.53;;;12.93;100.00
24666;BME280;29726;53.532;-1.478;2023-02-22T08:46:18;99739.13;;;12.96;100.00
24666;BME280;29726;53.532;-1.478;2023-02-22T08:49:02;99729.44;;;12.97;100.00
24666;BME280;29726;53.532;-1.478;2023-02-22T08:51:46;99720.00;;;12.94;100.00
24666;BME280;29726;53.532;-1.478;2023-02-22T08:54:30;99717.44;;;12.91;100.00
24666;BME280;29726;53.532;-1.478;2023-02-22T08:57:14;99713.34;;;12.92;100.00
24666;BME280;29726;53.532;-1.478;2023-02-22T08:59:58;99724.34;;;12.95;100.00
24666;BME280;29726;53.532;-1.478;2023-02-22T09:02:43;99723.63;;;13.00;100.00
24666;BME280;29726;53.532;-1.478;2023-02-22T09:05:27;99726.69;;;13.02;100.00
24666;BME280;29726;53.532;-1.478;2023-02-22T09:08:12;99719.50;;;12.96;100.00
24666;BME280;29726;53.532;-1.478;2023-02-22T09:10:56;99721.03;;;12.97;100.00
24666;BME280;29726;53.532;-1.478;2023-02-22T09:13:39;99720.03;;;13.00;100.00
24666;BME280;29726;53.532;-1.478;2023-02-22T09:16:23;99734.06;;;13.05;100.00
24666;BME280;29726;53.532;-1.478;2023-02-22T09:19:07;99739.41;;;13.09;100.00
24666;BME280;29726;53.532;-1.478;2023-02-22T09:21:56;99741.25;;;13.12;100.00
24666;BME280;29726;53.532;-1.478;2023-02-22T09:24:40;99730.50;;;13.05;100.00
24666;BME280;29726;53.532;-1.478;2023-02-22T09:27:26;99739.97;;;13.13;100.00
24666;BME280;29726;53.532;-1.478;2023-02-22T09:30:26;99750.16;;;13.16;100.00
24666;BME280;29726;53.532;-1.478;2023-02-22T09:33:13;99751.69;;;13.17;100.00
24666;BME280;29726;53.532;-1.478;2023-02-22T09:35:57;99747.09;;;13.14;100.00
24666;BME280;29726;53.532;-1.478;2023-02-22T09:38:43;99738.44;;;13.12;100.00
24666;BME280;29726;53.532;-1.478;2023-02-22T09:41:56;99764.72;;;13.20;100.00
24666;BME280;29726;53.532;-1.478;2023-02-22T09:44:54;99759.84;;;13.20;100.00
24666;BME280;29726;53.532;-1.478;2023-02-22T09:47:47;99763.41;;;13.15;100.00
24666;BME280;29726;53.532;-1.478;2023-02-22T09:50:37;99778.50;;;13.23;100.00
24666;BME280;29726;53.532;-1.478;2023-02-22T09:53:35;99770.84;;;13.24;100.00
24666;BME280;29726;53.532;-1.478;2023-02-22T09:56:25;99782.81;;;13.24;100.00
24666;BME280;29726;53.532;-1.478;2023-02-22T09:59:15;99771.56;;;13.19;100.00
24666;BME280;29726;53.532;-1.478;2023-02-22T10:02:15;99787.41;;;13.27;100.00
24666;BME280;29726;53.532;-1.478;2023-02-22T10:05:10;99799.91;;;13.26;100.00
24666;BME280;29726;53.532;-1.478;2023-02-22T10:08:05;99792.25;;;13.27;100.00
24666;BME280;29726;53.532;-1.478;2023-02-22T10:11:16;99785.38;;;13.27;100.00
24666;BME280;29726;53.532;-1.478;2023-02-22T10:17:13;99796.84;;;13.29;100.00
24666;BME280;29726;53.532;-1.478;2023-02-22T10:26:41;99810.63;;;13.33;100.00
24666;BME280;29726;53.532;-1.478;2023-02-22T10:29:38;99812.94;;;13.34;100.00
24666;BME280;29726;53.532;-1.478;2023-02-22T10:32:30;99807.59;;;13.36;100.00
24666;BME280;29726;53.532;-1.478;2023-02-22T10:35:20;99801.94;;;13.26;100.00
24666;BME280;29726;53.532;-1.478;2023-02-22T10:38:29;99777.66;;;13.12;100.00
24666;BME280;29726;53.532;-1.478;2023-02-22T10:41:29;99811.94;;;13.37;100.00
24666;BME280;29726;53.532;-1.478;2023-02-22T10:44:14;99832.31;;;13.38;100.00
24666;BME280;29726;53.532;-1.478;2023-02-22T10:46:59;99818.56;;;13.34;100.00
24666;BME280;29726;53.532;-1.478;2023-02-22T10:49:58;99805.78;;;13.33;100.00
24666;BME280;29726;53.532;-1.478;2023-02-22T10:52:43;99805.78;;;13.33;100.00
24666;BME280;29726;53.532;-1.478;2023-02-22T10:55:27;99803.00;;;13.39;100.00
24666;BME280;29726;53.532;-1.478;2023-02-22T10:58:11;99804.53;;;13.40;100.00
24666;BME280;29726;53.532;-1.478;2023-02-22T11:00:55;99811.41;;;13.39;100.00
24666;BME280;29726;53.532;-1.478;2023-02-22T11:03:39;99825.47;;;13.44;100.00
24666;BME280;29726;53.532;-1.478;2023-02-22T11:06:25;99830.84;;;13.48;100.00
24666;BME280;29726;53.532;-1.478;2023-02-22T11:09:19;99823.19;;;13.48;100.00
24666;BME280;29726;53.532;-1.478;2023-02-22T11:12:28;99827.78;;;13.51;100.00
24666;BME280;29726;53.532;-1.478;2023-02-22T11:18:02;99822.44;;;13.53;100.00
24666;BME280;29726;53.532;-1.478;2023-02-22T11:20:47;99824.75;;;13.55;100.00
24666;BME280;29726;53.532;-1.478;2023-02-22T11:23:31;99822.47;;;13.59;100.00
24666;BME280;29726;53.532;-1.478;2023-02-22T11:26:17;99822.97;;;13.57;100.00
24666;BME280;29726;53.532;-1.478;2023-02-22T11:29:10;99834.97;;;13.63;100.00
24666;BME280;29726;53.532;-1.478;2023-02-22T11:31:57;99832.13;;;13.58;100.00
24666;BME280;29726;53.532;-1.478;2023-02-22T11:34:43;99827.84;;;13.62;100.00
24666;BME280;29726;53.532;-1.478;2023-02-22T11:37:33;99831.91;;;13.67;100.00
24666;BME280;29726;53.532;-1.478;2023-02-22T11:40:21;99831.94;;;13.72;100.00
24666;BME280;29726;53.532;-1.478;2023-02-22T11:43:14;99831.44;;;13.74;100.00
24666;BME280;29726;53.532;-1.478;2023-02-22T11:46:06;99850.59;;;13.81;100.00
24666;BME280;29726;53.532;-1.478;2023-02-22T11:49:05;99852.59;;;13.80;100.00
24666;BME280;29726;53.532;-1.478;2023-02-22T11:58:05;99868.72;;;13.91;100.00
24666;BME280;29726;53.532;-1.478;2023-02-22T12:20:13;99894.78;;;14.08;100.00
24666;BME280;29726;53.532;-1.478;2023-02-22T12:28:53;99898.91;;;14.12;100.00
24666;BME280;29726;53.532;-1.478;2023-02-22T12:31:56;99886.91;;;14.06;100.00
24666;BME280;29726;53.532;-1.478;2023-02-22T12:34:57;99901.97;;;14.14;100.00
24666;BME280;29726;53.532;-1.478;2023-02-22T12:40:45;99906.34;;;14.15;100.00
24666;BME280;29726;53.532;-1.478;2023-02-22T12:43:46;99892.28;;;14.15;100.00
24666;BME280;29726;53.532;-1.478;2023-02-22T12:46:48;99903.28;;;14.19;100.00
24666;BME280;29726;53.532;-1.478;2023-02-22T12:49:39;99900.97;;;14.17;100.00
24666;BME280;29726;53.532;-1.478;2023-02-22T12:55:47;99905.56;;;14.20;100.00
24666;BME280;29726;53.532;-1.478;2023-02-22T12:58:48;99913.50;;;14.22;100.00
24666;BME280;29726;53.532;-1.478;2023-02-22T13:01:45;99904.03;;;14.19;100.00
24666;BME280;29726;53.532;-1.478;2023-02-22T13:04:33;99908.38;;;14.20;100.00
24666;BME280;29726;53.532;-1.478;2023-02-22T13:11:06;99920.66;;;14.23;100.00
24666;BME280;29726;53.532;-1.478;2023-02-22T13:14:34;99921.66;;;14.25;100.00
24666;BME280;29726;53.532;-1.478;2023-02-22T13:20:29;99920.91;;;14.25;100.00
24666;BME280;29726;53.532;-1.478;2023-02-22T13:26:14;99922.44;;;14.26;100.00
24666;BME280;29726;53.532;-1.478;2023-02-22T13:29:10;99928.06;;;14.26;100.00
24666;BME280;29726;53.532;-1.478;2023-02-22T13:32:18;99933.94;;;14.28;100.00
24666;BME280;29726;53.532;-1.478;2023-02-22T13:41:21;99936.97;;;14.24;100.00
24666;BME280;29726;53.532;-1.478;2023-02-22T13:44:39;99921.91;;;14.16;100.00
24666;BME280;29726;53.532;-1.478;2023-02-22T13:53:58;99988.28;;;13.72;100.00
24666;BME280;29726;53.532;-1.478;2023-02-22T13:56:45;99984.78;;;13.46;100.00
24666;BME280;29726;53.532;-1.478;2023-02-22T13:59:36;99986.44;;;13.27;100.00
24666;BME280;29726;53.532;-1.478;2023-02-22T14:05:52;99941.91;;;13.04;100.00
24666;BME280;29726;53.532;-1.478;2023-02-22T14:08:40;99959.91;;;13.23;100.00
24666;BME280;29726;53.532;-1.478;2023-02-22T14:14:15;99958.72;;;13.34;100.00
24666;BME280;29726;53.532;-1.478;2023-02-22T14:17:21;99954.66;;;13.41;100.00
24666;BME280;29726;53.532;-1.478;2023-02-22T14:26:28;99946.28;;;13.46;100.00
24666;BME280;29726;53.532;-1.478;2023-02-22T14:29:16;99957.06;;;13.59;100.00
24666;BME280;29726;53.532;-1.478;2023-02-22T14:32:04;99970.34;;;13.64;100.00
24666;BME280;29726;53.532;-1.478;2023-02-22T14:34:58;99957.09;;;13.64;100.00
24666;BME280;29726;53.532;-1.478;2023-02-22T14:37:48;99963.25;;;13.68;100.00
24666;BME280;29726;53.532;-1.478;2023-02-22T14:40:37;99972.44;;;13.74;100.00
24666;BME280;29726;53.532;-1.478;2023-02-22T14:43:23;99965.03;;;13.71;100.00
24666;BME280;29726;53.532;-1.478;2023-02-22T14:46:22;99978.31;;;13.76;100.00
24666;BME280;29726;53.532;-1.478;2023-02-22T14:49:10;99976.78;;;13.75;100.00
24666;BME280;29726;53.532;-1.478;2023-02-22T14:52:10;99976.81;;;13.81;100.00
24666;BME280;29726;53.532;-1.478;2023-02-22T14:55:45;99987.56;;;13.88;100.00
24666;BME280;29726;53.532;-1.478;2023-02-22T14:58:15;99983.75;;;13.91;100.00
24666;BME280;29726;53.532;-1.478;2023-02-22T15:04:35;99982.78;;;13.99;100.00
24666;BME280;29726;53.532;-1.478;2023-02-22T15:07:27;99990.97;;;14.03;100.00
24666;BME280;29726;53.532;-1.478;2023-02-22T15:10:20;99990.75;;;14.06;100.00
24666;BME280;29726;53.532;-1.478;2023-02-22T15:13:30;99988.19;;;14.08;100.00
24666;BME280;29726;53.532;-1.478;2023-02-22T15:16:16;99995.66;;;14.17;100.00
24666;BME280;29726;53.532;-1.478;2023-02-22T15:19:04;99996.69;;;14.19;100.00
24666;BME280;29726;53.532;-1.478;2023-02-22T15:21:55;99996.19;;;14.26;100.00
24666;BME280;29726;53.532;-1.478;2023-02-22T15:24:40;100010.00;;;14.30;100.00
24666;BME280;29726;53.532;-1.478;2023-02-22T15:27:24;100012.03;;;14.35;100.00
24666;BME280;29726;53.532;-1.478;2023-02-22T15:30:25;100009.25;;;14.29;100.00
24666;BME280;29726;53.532;-1.478;2023-02-22T15:33:12;100027.13;;;14.37;100.00
24666;BME280;29726;53.532;-1.478;2023-02-22T15:35:57;100031.50;;;14.44;100.00
24666;BME280;29726;53.532;-1.478;2023-02-22T15:38:49;100041.72;;;14.47;100.00
24666;BME280;29726;53.532;-1.478;2023-02-22T15:41:34;100034.53;;;14.40;100.00
24666;BME280;29726;53.532;-1.478;2023-02-22T15:44:18;100030.19;;;14.39;100.00
24666;BME280;29726;53.532;-1.478;2023-02-22T15:47:03;100037.13;;;14.49;100.00
24666;BME280;29726;53.532;-1.478;2023-02-22T15:50:17;100043.03;;;14.51;100.00
24666;BME280;29726;53.532;-1.478;2023-02-22T15:56:16;100050.66;;;14.51;100.00
24666;BME280;29726;53.532;-1.478;2023-02-22T16:01:50;100070.81;;;14.49;100.00
24666;BME280;29726;53.532;-1.478;2023-02-22T16:04:35;100065.72;;;14.48;100.00
24666;BME280;29726;53.532;-1.478;2023-02-22T16:07:19;100083.88;;;14.52;100.00
24666;BME280;29726;53.532;-1.478;2023-02-22T16:10:04;100093.84;;;14.53;100.00
24666;BME280;29726;53.532;-1.478;2023-02-22T16:15:53;100088.41;;;14.44;100.00
24666;BME280;29726;53.532;-1.478;2023-02-22T16:18:39;100092.00;;;14.45;100.00
24666;BME280;29726;53.532;-1.478;2023-02-22T16:21:24;100104.00;;;14.45;100.00
24666;BME280;29726;53.532;-1.478;2023-02-22T16:24:24;100122.91;;;14.50;100.00
24666;BME280;29726;53.532;-1.478;2023-02-22T16:30:21;100124.19;;;14.49;100.00
24666;BME280;29726;53.532;-1.478;2023-02-22T16:33:09;100128.00;;;14.46;100.00